Time;durP1;ratioP1;P1;durP2;ratioP2;P2;SDS_P1;SDS_P2;PMS_P1;PMS_P2;Temp;Humidity;BMP_temperature;BMP_pressure;BME280_temperature;BME280_humidity;BME280_pressure;Samples;Min_cycle;Max_cycle;Signal;HPM_P1;HPM_P2
2021/09/15 00:02:09;;;;;;;3.55;2.25;;;19.60;90.10;;;;;;4842685;29;20129;-86
2021/09/15 00:04:36;;;;;;;4.07;2.50;;;19.60;90.10;;;;;;4860764;29;20412;-84
2021/09/15 00:07:03;;;;;;;4.07;2.45;;;19.60;90.20;;;;;;4874679;29;20458;-83
2021/09/15 00:09:30;;;;;;;5.82;3.75;;;19.60;90.20;;;;;;4844769;29;20049;-83
2021/09/15 00:11:58;;;;;;;2.83;1.75;;;19.60;90.20;;;;;;4827670;29;20052;-83
2021/09/15 00:14:25;;;;;;;3.42;2.00;;;19.60;90.20;;;;;;4841812;29;20049;-82
2021/09/15 00:16:52;;;;;;;3.40;1.70;;;19.60;90.20;;;;;;4874122;29;20074;-83
2021/09/15 00:19:19;;;;;;;3.55;2.00;;;19.60;90.20;;;;;;4827290;29;20085;-82
2021/09/15 00:21:46;;;;;;;3.55;2.22;;;19.60;90.20;;;;;;4860926;29;20383;-82
2021/09/15 00:24:13;;;;;;;3.75;2.28;;;19.60;90.20;;;;;;4816951;29;20506;-79
2021/09/15 00:26:40;;;;;;;5.85;3.13;;;19.60;90.20;;;;;;4856280;29;20068;-78
2021/09/15 00:29:08;;;;;;;4.40;2.95;;;19.60;90.20;;;;;;4870129;29;20049;-82
2021/09/15 00:31:35;;;;;;;2.50;1.60;;;19.60;90.20;;;;;;4842578;29;20080;-80
2021/09/15 00:34:02;;;;;;;3.85;2.63;;;19.50;90.20;;;;;;4854703;29;20494;-80
2021/09/15 00:36:29;;;;;;;3.80;2.42;;;19.50;90.30;;;;;;4855483;29;20493;-83
2021/09/15 00:38:56;;;;;;;2.88;1.60;;;19.50;90.30;;;;;;4858319;29;20514;-81
2021/09/15 00:41:23;;;;;;;4.03;2.65;;;19.50;90.30;;;;;;4869744;29;20052;-78
2021/09/15 00:44:08;;;;;;;3.28;1.70;;;19.50;90.30;;;;;;4870752;29;20105;-82
2021/09/15 00:46:37;;;;;;;3.42;1.73;;;19.50;90.30;;;;;;4871358;29;20105;-83
2021/09/15 00:49:05;;;;;;;3.30;1.70;;;19.50;90.40;;;;;;4825966;29;20049;-83
2021/09/15 00:51:41;;;;;;;2.40;1.42;;;19.50;90.40;;;;;;4860680;29;20041;-83
2021/09/15 00:54:09;;;;;;;2.92;1.98;;;19.50;90.40;;;;;;4845030;29;20051;-82
2021/09/15 00:56:40;;;;;;;3.40;2.15;;;19.40;90.40;;;;;;4876514;29;20156;-83
2021/09/15 00:59:08;;;;;;;3.53;1.75;;;19.40;90.40;;;;;;4874435;29;20542;-83
2021/09/15 01:01:37;;;;;;;2.70;1.88;;;19.40;90.40;;;;;;4853608;29;20470;-83
2021/09/15 01:04:06;;;;;;;2.85;1.70;;;19.40;90.50;;;;;;4851939;29;20057;-78
2021/09/15 01:06:35;;;;;;;3.00;1.50;;;19.30;90.50;;;;;;4860737;29;20049;-79
2021/09/15 01:09:07;;;;;;;3.40;1.70;;;19.30;90.50;;;;;;4870645;29;20033;-78
2021/09/15 01:11:37;;;;;;;4.30;2.47;;;19.20;90.60;;;;;;4858273;29;20083;-78
2021/09/15 01:14:30;;;;;;;3.20;1.85;;;19.20;90.60;;;;;;4868012;29;20417;-78
2021/09/15 01:17:07;;;;;;;2.63;1.50;;;19.20;90.70;;;;;;4858791;29;20076;-78
2021/09/15 01:19:57;;;;;;;4.00;1.90;;;19.10;90.70;;;;;;4862091;29;20097;-78
2021/09/15 01:22:41;;;;;;;2.65;1.45;;;19.10;90.70;;;;;;4855592;29;20053;-78
2021/09/15 01:25:32;;;;;;;2.50;1.60;;;19.10;90.70;;;;;;4872778;29;20052;-78
2021/09/15 01:28:19;;;;;;;2.78;1.50;;;19.10;90.70;;;;;;4874047;29;20117;-78
2021/09/15 01:30:54;;;;;;;2.40;1.38;;;19.10;90.70;;;;;;4860397;29;20045;-78
2021/09/15 01:33:21;;;;;;;2.55;1.40;;;19.00;90.70;;;;;;4859066;29;20516;-78
2021/09/15 01:35:48;;;;;;;2.53;1.42;;;19.00;90.80;;;;;;4873937;29;20047;-78
2021/09/15 01:38:16;;;;;;;2.88;1.67;;;19.00;90.80;;;;;;4839933;29;20055;-78
2021/09/15 01:40:45;;;;;;;3.97;1.80;;;18.90;90.80;;;;;;4846227;29;20050;-78
2021/09/15 01:43:12;;;;;;;2.55;1.30;;;18.90;90.80;;;;;;4842397;29;20038;-78
2021/09/15 01:45:41;;;;;;;2.45;1.45;;;18.90;90.90;;;;;;4853695;29;20472;-78
2021/09/15 01:48:18;;;;;;;3.13;2.08;;;18.80;90.90;;;;;;4855344;29;20096;-78
2021/09/15 01:50:45;;;;;;;3.63;1.67;;;18.80;90.90;;;;;;4862749;29;20044;-78
2021/09/15 01:53:13;;;;;;;2.85;1.55;;;18.80;90.90;;;;;;4836225;29;20116;-78
2021/09/15 01:55:40;;;;;;;3.08;1.70;;;18.80;90.90;;;;;;4857043;29;20141;-78
2021/09/15 01:58:29;;;;;;;2.03;1.40;;;18.80;90.90;;;;;;4871478;29;20045;-78
2021/09/15 02:00:58;;;;;;;2.67;1.40;;;18.70;90.90;;;;;;4857901;29;20045;-77
2021/09/15 02:03:44;;;;;;;2.63;1.63;;;18.70;91.00;;;;;;4837434;29;20051;-78
2021/09/15 02:06:23;;;;;;;2.10;1.38;;;18.70;91.00;;;;;;4857169;29;20063;-78
2021/09/15 02:08:52;;;;;;;3.95;1.80;;;18.60;91.00;;;;;;4854318;29;20064;-78
2021/09/15 02:11:40;;;;;;;2.83;1.30;;;18.60;91.00;;;;;;4856375;29;20945;-78
2021/09/15 02:14:08;;;;;;;2.90;1.65;;;18.60;91.00;;;;;;4871478;29;20402;-78
2021/09/15 02:16:44;;;;;;;3.30;1.70;;;18.60;91.00;;;;;;4872549;29;20045;-78
2021/09/15 02:19:12;;;;;;;2.75;1.52;;;18.60;91.00;;;;;;4868552;29;20358;-78
2021/09/15 02:21:58;;;;;;;2.30;1.40;;;18.60;91.00;;;;;;4859851;29;20053;-78
2021/09/15 02:24:46;;;;;;;2.42;1.40;;;18.60;91.00;;;;;;4864269;29;20057;-78
2021/09/15 02:27:36;;;;;;;2.92;1.45;;;18.60;91.00;;;;;;4843605;29;20053;-78
2021/09/15 02:30:05;;;;;;;2.03;1.45;;;18.60;91.00;;;;;;4857115;29;20061;-77
2021/09/15 02:32:40;;;;;;;3.53;1.80;;;18.60;91.00;;;;;;4858729;29;20045;-78
2021/09/15 02:35:33;;;;;;;2.65;1.30;;;18.60;91.00;;;;;;4871810;29;20120;-78
2021/09/15 02:38:33;;;;;;;3.10;1.63;;;18.60;91.00;;;;;;4860068;29;20053;-78
2021/09/15 02:41:26;;;;;;;4.60;1.90;;;18.60;91.10;;;;;;4861186;29;20140;-78
2021/09/15 02:44:01;;;;;;;3.10;1.60;;;18.60;91.10;;;;;;4858281;29;20051;-78
2021/09/15 02:47:00;;;;;;;2.88;1.52;;;18.60;91.00;;;;;;4827031;29;20048;-78
2021/09/15 02:49:53;;;;;;;3.38;1.92;;;18.60;91.00;;;;;;4878471;29;20086;-78
2021/09/15 02:52:45;;;;;;;3.95;1.50;;;18.60;91.00;;;;;;4874495;29;20056;-77
2021/09/15 02:55:32;;;;;;;2.65;1.65;;;18.70;91.00;;;;;;4875986;29;20465;-78
2021/09/15 02:58:19;;;;;;;3.65;1.52;;;18.70;91.00;;;;;;4873770;29;20422;-78
2021/09/15 03:00:57;;;;;;;2.17;1.50;;;18.70;91.00;;;;;;4859629;29;20743;-78
2021/09/15 03:03:39;;;;;;;2.42;1.30;;;18.70;90.90;;;;;;4874411;29;20057;-78
2021/09/15 03:06:14;;;;;;;2.70;1.50;;;18.70;90.90;;;;;;4875727;29;20121;-78
2021/09/15 03:08:58;;;;;;;2.28;1.42;;;18.70;90.90;;;;;;4856790;29;20037;-78
2021/09/15 03:11:25;;;;;;;3.38;1.65;;;18.70;90.90;;;;;;4874693;29;20590;-78
2021/09/15 03:13:52;;;;;;;2.85;1.70;;;18.70;90.90;;;;;;4877347;29;20094;-78
2021/09/15 03:16:24;;;;;;;3.20;1.60;;;18.70;90.90;;;;;;4859211;29;20053;-78
2021/09/15 03:18:57;;;;;;;2.95;1.75;;;18.80;90.90;;;;;;4875742;29;20037;-78
2021/09/15 03:21:24;;;;;;;2.53;1.40;;;18.80;90.90;;;;;;4859522;29;20073;-78
2021/09/15 03:23:51;;;;;;;2.50;1.48;;;18.80;90.90;;;;;;4859619;29;20046;-78
2021/09/15 03:26:19;;;;;;;3.10;1.67;;;18.80;90.80;;;;;;4875676;29;20049;-77
2021/09/15 03:28:46;;;;;;;2.50;1.35;;;18.80;90.90;;;;;;4872750;29;20120;-78
2021/09/15 03:31:14;;;;;;;3.25;1.75;;;18.80;90.90;;;;;;4860822;29;20056;-78
2021/09/15 03:33:41;;;;;;;3.28;1.30;;;18.80;90.90;;;;;;4878280;29;20501;-78
2021/09/15 03:36:10;;;;;;;2.60;1.67;;;18.90;90.90;;;;;;4860653;29;20048;-78
2021/09/15 03:38:37;;;;;;;3.20;1.50;;;18.90;90.90;;;;;;4859141;29;20049;-78
2021/09/15 03:41:05;;;;;;;2.83;1.60;;;18.90;90.90;;;;;;4876747;29;20095;-78
2021/09/15 03:43:31;;;;;;;3.05;1.52;;;18.90;90.90;;;;;;4845323;29;20805;-78
2021/09/15 03:45:59;;;;;;;2.38;1.27;;;18.90;90.80;;;;;;4842932;29;20049;-78
2021/09/15 03:48:26;;;;;;;2.92;1.58;;;18.90;91.10;;;;;;4871331;29;20056;-78
2021/09/15 03:50:53;;;;;;;2.45;1.30;;;18.90;90.90;;;;;;4839688;29;20118;-78
2021/09/15 03:53:23;;;;;;;2.40;1.58;;;18.90;90.80;;;;;;4855766;29;20038;-78
2021/09/15 03:55:50;;;;;;;2.47;1.63;;;18.90;90.90;;;;;;4865445;29;20048;-78
2021/09/15 03:58:18;;;;;;;3.05;1.60;;;18.90;90.90;;;;;;4865642;29;20049;-78
2021/09/15 04:00:46;;;;;;;2.80;1.83;;;18.90;90.90;;;;;;4836624;29;20049;-78
2021/09/15 04:03:13;;;;;;;2.35;1.40;;;19.00;90.90;;;;;;4855164;29;20056;-78
2021/09/15 04:05:42;;;;;;;2.38;1.42;;;19.00;90.90;;;;;;4847714;29;20829;-78
2021/09/15 04:08:09;;;;;;;2.40;1.42;;;19.00;90.90;;;;;;4830337;29;20042;-78
2021/09/15 04:10:37;;;;;;;2.58;1.45;;;19.00;90.90;;;;;;4855039;29;20224;-78
2021/09/15 04:13:07;;;;;;;2.97;1.77;;;19.00;90.90;;;;;;4853239;29;20518;-78
2021/09/15 04:15:38;;;;;;;3.00;1.92;;;19.00;90.90;;;;;;4841720;29;20061;-78
2021/09/15 04:18:05;;;;;;;3.25;2.22;;;19.00;90.90;;;;;;4834068;29;20136;-78
2021/09/15 04:20:33;;;;;;;3.15;1.92;;;19.00;90.90;;;;;;4826558;29;20600;-78
2021/09/15 04:23:00;;;;;;;2.67;1.33;;;19.00;90.90;;;;;;4847951;29;20042;-78
2021/09/15 04:33:45;;;;;;;1.92;1.10;;;19.00;90.90;;;;;;4839757;29;20052;-78
2021/09/15 04:36:13;;;;;;;2.75;1.40;;;19.00;90.90;;;;;;4850967;29;20041;-77
2021/09/15 04:38:40;;;;;;;3.15;1.45;;;19.00;91.00;;;;;;4831797;29;20057;-78
2021/09/15 04:41:12;;;;;;;2.50;1.58;;;18.90;90.90;;;;;;4822255;29;20053;-78
2021/09/15 04:43:41;;;;;;;2.92;1.50;;;19.00;91.00;;;;;;4860475;29;20052;-78
2021/09/15 04:46:09;;;;;;;2.75;1.63;;;19.00;91.00;;;;;;4841526;29;20073;-78
2021/09/15 04:48:38;;;;;;;2.65;1.63;;;19.00;91.00;;;;;;4847014;29;20042;-78
2021/09/15 04:51:07;;;;;;;2.83;1.75;;;19.00;91.10;;;;;;4845296;29;20400;-78
2021/09/15 04:53:34;;;;;;;2.70;1.30;;;19.00;91.10;;;;;;4825891;29;20054;-78
2021/09/15 04:56:03;;;;;;;2.83;1.45;;;19.00;91.00;;;;;;4841422;29;20041;-78
2021/09/15 04:58:31;;;;;;;1.58;0.95;;;19.00;91.00;;;;;;4862996;29;20049;-78
2021/09/15 05:00:59;;;;;;;2.42;1.38;;;19.00;91.00;;;;;;4852323;29;20041;-78
2021/09/15 05:03:26;;;;;;;3.15;1.55;;;19.00;91.10;;;;;;4849223;29;20370;-78
2021/09/15 05:05:53;;;;;;;3.92;1.55;;;19.00;91.00;;;;;;4827237;29;20057;-78
2021/09/15 05:08:24;;;;;;;2.10;1.23;;;19.00;91.00;;;;;;4843063;29;20541;-78
2021/09/15 05:10:51;;;;;;;3.35;2.00;;;19.00;91.10;;;;;;4853913;29;20046;-78
2021/09/15 05:13:22;;;;;;;2.90;1.80;;;19.00;91.00;;;;;;4840135;29;20056;-78
2021/09/15 05:15:50;;;;;;;3.58;1.90;;;19.00;91.00;;;;;;4845892;29;20037;-78
2021/09/15 05:18:17;;;;;;;3.55;1.67;;;19.00;91.00;;;;;;4821636;29;20145;-78
2021/09/15 05:20:44;;;;;;;3.35;1.75;;;19.00;91.00;;;;;;4849012;29;20617;-78
2021/09/15 05:23:11;;;;;;;2.88;1.58;;;19.00;91.00;;;;;;4840927;29;20046;-78
2021/09/15 05:25:39;;;;;;;2.42;1.40;;;19.00;91.00;;;;;;4833184;29;20045;-78
2021/09/15 05:28:09;;;;;;;2.97;1.60;;;19.00;91.00;;;;;;4855875;29;20057;-78
2021/09/15 05:30:38;;;;;;;3.35;1.98;;;19.10;91.10;;;;;;4851652;29;20530;-78
2021/09/15 05:33:08;;;;;;;2.88;1.58;;;19.10;91.10;;;;;;4859236;29;20102;-78
2021/09/15 05:35:35;;;;;;;2.50;1.58;;;19.10;91.10;;;;;;4826902;29;20132;-78
2021/09/15 05:38:04;;;;;;;5.13;1.58;;;19.10;91.10;;;;;;4842904;29;20060;-78
2021/09/15 05:40:36;;;;;;;2.33;1.23;;;19.10;91.10;;;;;;4859805;29;20076;-78
2021/09/15 05:43:04;;;;;;;2.80;1.20;;;19.10;91.00;;;;;;4846184;29;20045;-78
2021/09/15 05:45:32;;;;;;;3.13;1.83;;;19.10;91.00;;;;;;4838014;29;20042;-78
2021/09/15 05:47:59;;;;;;;2.60;1.55;;;19.10;91.00;;;;;;4840873;29;20142;-78
2021/09/15 05:50:26;;;;;;;2.72;1.45;;;19.10;91.00;;;;;;4855108;29;20360;-79
2021/09/15 05:52:54;;;;;;;4.65;1.80;;;19.10;91.00;;;;;;4861997;29;20053;-78
2021/09/15 05:55:21;;;;;;;2.78;1.65;;;19.10;91.00;;;;;;4854339;29;20144;-78
2021/09/15 05:57:53;;;;;;;3.80;1.83;;;19.00;91.00;;;;;;4838178;29;20053;-78
2021/09/15 06:00:20;;;;;;;3.47;1.98;;;19.00;91.10;;;;;;4843104;29;20053;-78
2021/09/15 06:02:59;;;;;;;3.47;1.80;;;19.00;91.10;;;;;;4817286;29;20057;-78
2021/09/15 06:05:44;;;;;;;3.75;1.92;;;18.90;91.20;;;;;;4841685;29;20048;-78
2021/09/15 06:08:13;;;;;;;2.20;1.35;;;18.90;91.20;;;;;;4826089;29;20081;-78
2021/09/15 06:10:40;;;;;;;4.10;1.90;;;18.90;91.30;;;;;;4865603;29;20056;-78
2021/09/15 06:13:08;;;;;;;2.88;1.70;;;18.90;91.30;;;;;;4853892;29;20054;-79
2021/09/15 06:15:35;;;;;;;3.17;1.85;;;18.90;91.40;;;;;;4857702;29;20495;-79
2021/09/15 06:18:03;;;;;;;2.72;1.20;;;18.80;91.40;;;;;;4842731;29;20097;-78
2021/09/15 06:20:37;;;;;;;3.60;2.13;;;18.90;91.50;;;;;;4828508;29;20054;-79
2021/09/15 06:23:23;;;;;;;3.63;1.70;;;18.90;91.40;;;;;;4847696;29;20056;-78
2021/09/15 06:25:55;;;;;;;2.80;1.60;;;18.90;91.40;;;;;;4843216;29;20084;-79
2021/09/15 06:28:23;;;;;;;2.55;1.55;;;18.90;91.50;;;;;;4827084;29;20053;-78
2021/09/15 06:30:50;;;;;;;3.58;1.85;;;18.90;91.50;;;;;;4844148;29;20413;-78
2021/09/15 06:33:18;;;;;;;2.50;1.50;;;18.90;91.60;;;;;;4861416;29;20049;-79
2021/09/15 06:35:47;;;;;;;3.47;2.10;;;18.90;91.60;;;;;;4857933;29;20065;-79
2021/09/15 06:38:14;;;;;;;3.08;1.50;;;18.90;91.60;;;;;;4855487;29;20077;-78
2021/09/15 06:40:41;;;;;;;3.05;1.67;;;18.90;91.60;;;;;;4797960;29;20046;-78
2021/09/15 06:43:08;;;;;;;2.80;1.42;;;18.90;91.60;;;;;;4864119;29;20149;-82
2021/09/15 06:45:37;;;;;;;3.17;2.05;;;18.90;91.60;;;;;;4834896;29;20053;-82
2021/09/15 06:48:04;;;;;;;2.85;1.70;;;18.90;91.60;;;;;;4847650;29;20448;-82
2021/09/15 06:50:31;;;;;;;3.08;1.95;;;19.00;91.60;;;;;;4861255;29;20054;-82
2021/09/15 06:52:58;;;;;;;2.80;1.63;;;19.00;91.60;;;;;;4827082;29;20058;-82
2021/09/15 06:55:26;;;;;;;3.25;1.75;;;19.00;91.70;;;;;;4829835;29;20073;-82
2021/09/15 06:57:53;;;;;;;4.15;2.63;;;19.00;91.70;;;;;;4844153;29;20049;-81
2021/09/15 07:00:20;;;;;;;3.40;1.88;;;19.00;91.70;;;;;;4860679;29;20037;-81
2021/09/15 07:02:49;;;;;;;4.07;2.10;;;19.00;92.00;;;;;;4861114;29;20490;-81
2021/09/15 07:05:16;;;;;;;3.97;1.83;;;19.10;91.70;;;;;;4844521;29;20113;-81
2021/09/15 07:07:43;;;;;;;2.80;1.80;;;19.10;91.70;;;;;;4816584;29;20034;-81
2021/09/15 07:10:10;;;;;;;4.90;2.83;;;19.10;91.70;;;;;;4824362;29;20041;-81
2021/09/15 07:12:39;;;;;;;2.13;1.30;;;19.10;91.70;;;;;;4814823;29;21119;-81
2021/09/15 07:15:09;;;;;;;2.40;1.23;;;19.10;91.70;;;;;;4842742;29;20037;-81
2021/09/15 07:17:44;;;;;;;2.78;1.75;;;19.20;91.70;;;;;;4829945;29;20045;-79
2021/09/15 07:20:14;;;;;;;3.72;1.95;;;19.20;91.70;;;;;;4829159;29;20053;-82
2021/09/15 07:22:41;;;;;;;3.67;2.28;;;19.20;91.70;;;;;;4844551;29;20041;-82
2021/09/15 07:25:08;;;;;;;3.83;2.20;;;19.20;91.70;;;;;;4844649;29;20053;-82
2021/09/15 07:27:35;;;;;;;3.40;1.75;;;19.20;91.70;;;;;;4820230;29;20049;-81
2021/09/15 07:30:03;;;;;;;3.72;2.00;;;19.30;92.00;;;;;;4844600;29;20078;-81
2021/09/15 07:32:33;;;;;;;3.92;2.05;;;19.30;91.70;;;;;;4829370;29;20418;-81
2021/09/15 07:35:09;;;;;;;3.22;1.52;;;19.30;91.80;;;;;;4836548;29;20064;-81
2021/09/15 07:37:37;;;;;;;3.45;1.90;;;19.30;91.70;;;;;;4844658;29;20049;-81
2021/09/15 07:40:06;;;;;;;2.95;1.55;;;19.30;91.80;;;;;;4844045;29;20445;-80
2021/09/15 07:42:33;;;;;;;3.88;1.92;;;19.30;91.80;;;;;;4844914;29;20124;-79
2021/09/15 07:45:00;;;;;;;3.80;2.42;;;19.40;91.80;;;;;;4828937;29;20049;-82
2021/09/15 07:47:27;;;;;;;4.85;2.28;;;19.40;91.80;;;;;;4829867;29;20129;-82
2021/09/15 07:49:54;;;;;;;4.30;2.60;;;19.40;91.70;;;;;;4828640;29;20057;-80
2021/09/15 07:52:21;;;;;;;3.10;1.88;;;19.40;91.70;;;;;;4844289;29;20038;-80
2021/09/15 07:54:48;;;;;;;2.70;1.58;;;19.40;91.70;;;;;;4861004;29;20538;-80
2021/09/15 07:57:15;;;;;;;3.50;1.80;;;19.50;91.70;;;;;;4808313;29;20050;-80
2021/09/15 07:59:43;;;;;;;3.50;1.90;;;19.50;91.80;;;;;;4828435;29;20054;-80
2021/09/15 08:02:10;;;;;;;5.18;3.75;;;19.50;91.80;;;;;;4844106;29;20136;-79
2021/09/15 08:04:38;;;;;;;5.78;3.72;;;19.50;91.80;;;;;;4843742;29;20136;-80
2021/09/15 08:07:05;;;;;;;3.90;2.47;;;19.50;91.80;;;;;;4828992;29;20049;-80
2021/09/15 08:09:32;;;;;;;3.33;2.22;;;19.50;91.80;;;;;;4860356;29;20518;-79
2021/09/15 08:11:59;;;;;;;3.30;2.00;;;19.50;91.80;;;;;;4827632;29;20062;-80
2021/09/15 08:14:26;;;;;;;4.60;2.50;;;19.50;91.80;;;;;;4843364;29;20098;-80
2021/09/15 08:16:54;;;;;;;3.22;1.70;;;19.50;91.80;;;;;;4843907;29;20053;-80
2021/09/15 08:19:22;;;;;;;3.63;1.95;;;19.60;91.80;;;;;;4827564;29;20085;-80
2021/09/15 08:21:49;;;;;;;2.97;1.95;;;19.60;91.80;;;;;;4859016;29;20083;-79
2021/09/15 08:24:16;;;;;;;4.28;2.38;;;19.70;91.80;;;;;;4827892;29;20054;-79
2021/09/15 08:26:43;;;;;;;3.90;2.30;;;19.70;91.80;;;;;;4843943;29;20080;-81
2021/09/15 08:29:11;;;;;;;3.63;2.05;;;19.70;91.80;;;;;;4828530;29;20037;-82
2021/09/15 08:31:38;;;;;;;4.38;2.25;;;19.80;91.80;;;;;;4812592;29;20045;-81
2021/09/15 08:34:05;;;;;;;4.03;2.38;;;19.80;91.80;;;;;;4846149;29;20045;-83
2021/09/15 08:36:32;;;;;;;5.30;2.95;;;19.90;91.80;;;;;;4839408;29;20046;-82
2021/09/15 08:38:59;;;;;;;4.82;2.22;;;19.90;91.80;;;;;;4840142;29;20049;-82
2021/09/15 08:41:26;;;;;;;2.95;1.90;;;20.00;91.70;;;;;;4805815;29;20053;-81
2021/09/15 08:43:53;;;;;;;3.58;1.85;;;20.00;91.70;;;;;;4828140;29;20128;-83
2021/09/15 08:46:23;;;;;;;3.40;1.88;;;20.10;91.70;;;;;;4808526;29;20101;-84
2021/09/15 08:48:50;;;;;;;4.78;2.13;;;20.10;91.90;;;;;;4809945;29;20137;-83
2021/09/15 08:51:22;;;;;;;5.38;3.83;;;20.10;91.60;;;;;;4818246;29;20452;-83
2021/09/15 08:53:52;;;;;;;4.75;2.60;;;20.20;91.60;;;;;;4815026;29;20065;-82
2021/09/15 08:56:21;;;;;;;8.43;3.55;;;20.10;91.60;;;;;;4833822;29;20097;-81
2021/09/15 08:58:48;;;;;;;4.43;2.80;;;20.10;91.60;;;;;;4793909;29;20065;-80
2021/09/15 09:01:22;;;;;;;6.00;3.85;;;20.20;91.60;;;;;;4818201;29;20158;-80
2021/09/15 09:03:57;;;;;;;7.53;3.72;;;20.20;91.60;;;;;;4809944;29;20046;-81
2021/09/15 09:06:29;;;;;;;8.10;5.00;;;20.20;91.60;;;;;;4833350;29;20050;-82
2021/09/15 09:08:57;;;;;;;8.75;6.38;;;20.20;91.60;;;;;;4817696;29;20120;-82
2021/09/15 09:11:29;;;;;;;9.57;6.85;;;20.20;91.60;;;;;;4825598;29;20077;-81
2021/09/15 09:14:02;;;;;;;10.88;7.55;;;20.30;91.60;;;;;;4821851;29;20045;-81
2021/09/15 09:16:50;;;;;;;6.78;4.85;;;20.30;91.60;;;;;;4838959;29;20046;-81
2021/09/15 09:19:21;;;;;;;6.15;4.47;;;20.40;91.50;;;;;;4806665;29;20126;-80
2021/09/15 09:21:50;;;;;;;6.68;3.95;;;20.40;91.60;;;;;;4823457;29;20134;-80
2021/09/15 09:24:25;;;;;;;7.60;4.57;;;20.60;91.50;;;;;;4823482;29;20058;-83
2021/09/15 09:27:01;;;;;;;11.10;7.22;;;20.80;91.40;;;;;;4813122;29;20046;-82
2021/09/15 09:29:39;;;;;;;12.93;8.60;;;20.90;91.20;;;;;;4823429;29;20070;-82
2021/09/15 09:32:08;;;;;;;9.02;5.88;;;20.90;91.20;;;;;;4813867;29;20468;-82
2021/09/15 09:34:47;;;;;;;9.23;6.20;;;21.00;91.10;;;;;;4815292;29;20138;-81
2021/09/15 09:37:19;;;;;;;8.18;6.28;;;21.00;91.10;;;;;;4836304;29;20057;-80
2021/09/15 09:39:57;;;;;;;12.65;8.30;;;21.10;91.10;;;;;;4823341;29;20399;-81
2021/09/15 09:42:24;;;;;;;10.80;8.45;;;21.10;91.10;;;;;;4836722;29;20042;-82
2021/09/15 09:45:21;;;;;;;14.73;10.40;;;21.10;91.10;;;;;;4825072;29;20609;-81
2021/09/15 09:47:48;;;;;;;11.37;7.83;;;21.10;91.00;;;;;;4799903;29;1279378;-81
2021/09/15 09:50:18;;;;;;;11.30;8.13;;;21.00;91.20;;;;;;4837061;29;20037;-81
2021/09/15 09:52:58;;;;;;;10.20;7.80;;;21.00;91.20;;;;;;4834426;29;20068;-81
2021/09/15 09:55:30;;;;;;;13.80;9.13;;;21.00;91.20;;;;;;4858629;29;20094;-81
2021/09/15 09:57:57;;;;;;;12.70;9.48;;;21.10;91.20;;;;;;4875257;29;20577;-81
2021/09/15 10:00:26;;;;;;;14.50;10.70;;;21.00;91.10;;;;;;4862210;29;20124;-81
2021/09/15 10:02:53;;;;;;;11.75;8.23;;;21.10;91.10;;;;;;4871984;29;20053;-82
2021/09/15 10:05:21;;;;;;;14.73;10.95;;;21.10;91.10;;;;;;4861401;29;20049;-81
2021/09/15 10:07:49;;;;;;;14.57;10.90;;;21.10;91.10;;;;;;4846447;29;20049;-81
2021/09/15 10:10:18;;;;;;;17.33;12.02;;;21.10;91.00;;;;;;4851166;29;20049;-82
2021/09/15 10:12:49;;;;;;;15.52;11.05;;;21.20;91.00;;;;;;4847739;29;20390;-81
2021/09/15 10:15:17;;;;;;;16.27;12.25;;;21.20;91.30;;;;;;4831003;29;20498;-82
2021/09/15 10:17:52;;;;;;;21.10;14.25;;;21.30;90.90;;;;;;4861563;29;20050;-82
2021/09/15 10:20:30;;;;;;;17.23;11.05;;;21.30;90.90;;;;;;4861713;29;20574;-82
2021/09/15 10:22:58;;;;;;;18.75;12.63;;;21.30;90.90;;;;;;4860659;29;20140;-79
2021/09/15 10:25:51;;;;;;;16.90;11.98;;;21.40;90.90;;;;;;4861827;29;20057;-81
2021/09/15 10:28:18;;;;;;;16.80;11.85;;;21.40;90.80;;;;;;4841884;29;20562;-80
2021/09/15 10:30:51;;;;;;;13.18;9.30;;;21.40;90.80;;;;;;4843467;29;20045;-81
2021/09/15 10:33:36;;;;;;;20.35;14.95;;;21.60;90.80;;;;;;4858962;29;20481;-78
2021/09/15 10:36:33;;;;;;;17.27;12.05;;;21.70;90.60;;;;;;4860581;29;20042;-77
2021/09/15 10:39:01;;;;;;;20.70;13.70;;;21.70;90.50;;;;;;4863226;29;20065;-82
2021/09/15 10:41:34;;;;;;;19.92;12.15;;;21.70;90.60;;;;;;4800823;29;20420;-80
2021/09/15 10:44:06;;;;;;;16.85;12.18;;;21.60;90.60;;;;;;4861148;29;20042;-80
2021/09/15 10:46:34;;;;;;;;;;;21.60;90.60;;;;;;4840454;29;20126;-81
2021/09/15 10:49:39;;;;;;;22.30;15.80;;;21.40;90.70;;;;;;4850247;29;19927;-82
2021/09/15 10:52:09;;;;;;;25.73;17.23;;;21.30;90.80;;;;;;4845558;29;20459;-80
2021/09/15 10:54:51;;;;;;;30.33;20.75;;;21.20;90.90;;;;;;4860030;29;20050;-80
2021/09/15 10:57:27;;;;;;;29.05;19.52;;;21.10;90.90;;;;;;4827806;29;20109;-80
2021/09/15 10:59:55;;;;;;;24.83;16.58;;;21.10;90.90;;;;;;4843805;29;20450;-82
2021/09/15 11:02:33;;;;;;;25.52;15.70;;;21.10;90.90;;;;;;4859631;29;20056;-83
2021/09/15 11:05:29;;;;;;;20.50;14.15;;;21.30;90.80;;;;;;4862171;29;20041;-79
2021/09/15 11:07:57;;;;;;;24.83;16.55;;;21.50;90.60;;;;;;4860213;29;20052;-82
2021/09/15 11:13:14;;;;;;;22.33;15.63;;;21.80;90.20;;;;;;4844742;29;20073;-84
2021/09/15 11:15:46;;;;;;;20.02;13.07;;;21.90;90.10;;;;;;4837832;29;20105;-84
2021/09/15 11:18:24;;;;;;;20.88;13.45;;;22.00;90.10;;;;;;4867947;29;20056;-83
2021/09/15 11:21:02;;;;;;;19.88;12.65;;;22.10;90.00;;;;;;4840877;29;20053;-84
2021/09/15 11:23:30;;;;;;;23.05;16.30;;;22.30;89.60;;;;;;4865627;29;20110;-80
2021/09/15 11:25:59;;;;;;;20.77;13.05;;;22.30;88.90;;;;;;4857200;29;20033;-85
2021/09/15 11:28:26;;;;;;;23.65;15.93;;;22.30;89.10;;;;;;4834340;29;20521;-84
2021/09/15 11:30:53;;;;;;;23.70;16.23;;;22.40;88.70;;;;;;4845402;29;20090;-82
2021/09/15 11:33:29;;;;;;;22.42;14.27;;;22.30;88.80;;;;;;4844271;29;20047;-84
2021/09/15 11:35:58;;;;;;;21.13;14.18;;;22.40;88.00;;;;;;4852437;29;20042;-81
2021/09/15 11:38:30;;;;;;;16.70;11.40;;;22.40;88.00;;;;;;4844180;29;20105;-85
2021/09/15 11:41:11;;;;;;;;;;;22.50;87.70;;;;;;4853688;29;20042;-84
2021/09/15 11:43:42;;;;;;;19.65;14.45;;;22.60;87.40;;;;;;4836147;29;19924;-82
2021/09/15 11:46:09;;;;;;;18.35;13.00;;;22.60;87.10;;;;;;4842592;29;20113;-81
2021/09/15 11:48:38;;;;;;;24.30;15.63;;;22.60;86.80;;;;;;4834570;29;20058;-80
2021/09/15 11:51:22;;;;;;;19.30;13.32;;;22.60;86.30;;;;;;4812812;29;20073;-80
2021/09/15 11:59:16;;;;;;;19.58;14.57;;;22.60;85.90;;;;;;4854260;29;20490;-81
2021/09/15 12:02:09;;;;;;;20.15;14.63;;;22.40;85.90;;;;;;4838132;29;20053;-82
2021/09/15 12:04:42;;;;;;;21.88;15.43;;;22.30;86.00;;;;;;4830350;29;20490;-82
2021/09/15 12:07:11;;;;;;;19.42;14.57;;;22.30;85.70;;;;;;4857799;29;20105;-80
2021/09/15 12:09:39;;;;;;;21.65;15.93;;;22.20;85.60;;;;;;4845120;29;20052;-83
2021/09/15 12:12:09;;;;;;;21.77;16.05;;;22.10;85.50;;;;;;4829094;29;20164;-82
2021/09/15 12:14:36;;;;;;;23.00;17.50;;;22.10;85.80;;;;;;4831010;29;20049;-82
2021/09/15 12:17:05;;;;;;;23.67;18.95;;;22.00;85.50;;;;;;4842755;29;20088;-82
2021/09/15 12:19:32;;;;;;;22.58;16.58;;;21.80;85.60;;;;;;4812206;29;20057;-81
2021/09/15 12:22:00;;;;;;;20.17;15.07;;;21.80;85.80;;;;;;4828305;29;20398;-81
2021/09/15 12:24:27;;;;;;;18.15;14.18;;;21.80;85.70;;;;;;4833065;29;20053;-80
2021/09/15 12:26:54;;;;;;;16.52;13.25;;;21.90;85.30;;;;;;4824514;29;20038;-82
2021/09/15 12:29:22;;;;;;;15.68;11.15;;;21.90;85.00;;;;;;4816868;29;20045;-82
2021/09/15 12:31:49;;;;;;;13.05;9.95;;;21.90;85.00;;;;;;4847105;29;20102;-81
2021/09/15 12:34:31;;;;;;;12.43;9.07;;;21.90;84.60;;;;;;4856709;29;20153;-80
2021/09/15 12:37:16;;;;;;;10.05;7.70;;;22.10;84.30;;;;;;4840809;29;20486;-77
2021/09/15 12:39:55;;;;;;;10.30;6.93;;;22.20;83.90;;;;;;4858322;29;20045;-81
2021/09/15 12:42:31;;;;;;;8.02;5.65;;;22.40;83.40;;;;;;4857891;29;20058;-80
2021/09/15 12:45:12;;;;;;;7.55;5.55;;;22.40;82.80;;;;;;4843334;29;20502;-80
2021/09/15 12:47:41;;;;;;;7.20;4.72;;;22.50;82.30;;;;;;4827740;29;20379;-80
2021/09/15 12:50:20;;;;;;;7.18;5.43;;;22.40;82.30;;;;;;4862723;29;20416;-80
2021/09/15 12:52:49;;;;;;;7.18;4.50;;;22.40;81.60;;;;;;4843065;29;20124;-84
2021/09/15 12:55:25;;;;;;;5.43;3.65;;;22.40;81.50;;;;;;4856065;29;20049;-80
2021/09/15 12:57:59;;;;;;;5.70;4.40;;;22.40;81.40;;;;;;4840742;29;20045;-77
2021/09/15 13:00:31;;;;;;;6.32;4.22;;;22.40;81.40;;;;;;4860096;29;20052;-78
2021/09/15 13:03:03;;;;;;;7.60;4.72;;;22.40;81.20;;;;;;4873484;29;20066;-78
2021/09/15 13:05:41;;;;;;;6.97;3.78;;;22.30;80.80;;;;;;4842432;29;20057;-78
2021/09/15 13:08:22;;;;;;;4.00;2.70;;;22.20;80.70;;;;;;4859204;29;20811;-78
2021/09/15 13:10:51;;;;;;;3.85;2.45;;;22.10;80.90;;;;;;4842877;29;20049;-78
2021/09/15 13:13:20;;;;;;;4.55;2.22;;;22.00;80.90;;;;;;4859097;29;20101;-79
2021/09/15 13:15:48;;;;;;;4.88;2.55;;;22.00;81.30;;;;;;4859235;29;20049;-78
2021/09/15 13:18:16;;;;;;;4.75;2.75;;;21.90;81.40;;;;;;4859757;29;20072;-78
2021/09/15 13:20:43;;;;;;;3.58;2.00;;;21.80;80.70;;;;;;4851708;29;20054;-78
2021/09/15 13:23:10;;;;;;;3.80;2.10;;;21.90;80.70;;;;;;4842731;29;20049;-78